Time;durP1;ratioP1;P1;durP2;ratioP2;P2;SDS_P1;SDS_P2;PMS_P1;PMS_P2;Temp;Humidity;BMP_temperature;BMP_pressure;BME280_temperature;BME280_humidity;BME280_pressure;Samples;Min_cycle;Max_cycle;Signal;HPM_P1;HPM_P2
2022/11/19 00:00:44;;;;;;;11.90;8.60;;;;;;;;;;4950422;28;20078;-73
2022/11/19 00:03:11;;;;;;;10.10;8.25;;;;;;;;;;4933263;29;20035;-74
2022/11/19 00:05:37;;;;;;;10.25;9.05;;;;;;;;;;4933344;29;20062;-72
2022/11/19 00:08:03;;;;;;;9.60;8.48;;;;;;;;;;4917836;29;20032;-75
2022/11/19 00:10:29;;;;;;;8.65;7.75;;;;;;;;;;4918749;29;20043;-71
2022/11/19 00:12:55;;;;;;;10.68;8.13;;;;;;;;;;4933351;29;20039;-73
2022/11/19 00:15:24;;;;;;;9.15;8.18;;;;;;;;;;4933659;29;20051;-73
2022/11/19 00:17:50;;;;;;;9.10;7.15;;;;;;;;;;4934493;29;20035;-74
2022/11/19 00:20:16;;;;;;;8.20;7.38;;;;;;;;;;4952066;29;20463;-73
2022/11/19 00:22:42;;;;;;;14.25;9.25;;;;;;;;;;4934214;29;20102;-75
2022/11/19 00:25:08;;;;;;;11.63;8.43;;;;;;;;;;4950873;29;20098;-73
2022/11/19 00:27:34;;;;;;;9.40;8.50;;;;;;;;;;4934965;29;20381;-72
2022/11/19 00:30:01;;;;;;;11.13;8.85;;;;;;;;;;4952362;29;20043;-74
2022/11/19 00:32:30;;;;;;;12.80;8.38;;;;;;;;;;4920700;29;20035;-73
2022/11/19 00:34:56;;;;;;;10.05;7.90;;;;;;;;;;4952948;28;20504;-71
2022/11/19 00:37:22;;;;;;;9.98;7.90;;;;;;;;;;4952694;28;20043;-73
2022/11/19 00:39:48;;;;;;;8.82;7.80;;;;;;;;;;4935830;28;20101;-73
2022/11/19 00:42:14;;;;;;;12.38;8.45;;;;;;;;;;4952724;28;20031;-73
2022/11/19 00:44:40;;;;;;;15.07;8.02;;;;;;;;;;4935524;28;20039;-74
2022/11/19 00:47:06;;;;;;;10.88;8.27;;;;;;;;;;4952465;28;20043;-74
2022/11/19 00:49:32;;;;;;;15.38;8.85;;;;;;;;;;4920356;28;20126;-72
2022/11/19 00:51:58;;;;;;;16.48;10.05;;;;;;;;;;4935126;28;20082;-73
2022/11/19 00:54:24;;;;;;;10.18;8.73;;;;;;;;;;4935616;29;20054;-73
2022/11/19 00:56:50;;;;;;;12.90;8.43;;;;;;;;;;4953003;28;20038;-72
2022/11/19 00:59:15;;;;;;;14.43;10.52;;;;;;;;;;4952654;28;20414;-72
2022/11/19 01:01:41;;;;;;;9.18;7.78;;;;;;;;;;4935736;29;20535;-72
2022/11/19 01:04:07;;;;;;;12.98;7.70;;;;;;;;;;4950608;28;20067;-72
2022/11/19 01:06:33;;;;;;;11.25;8.82;;;;;;;;;;4931270;29;20075;-73
2022/11/19 01:08:59;;;;;;;17.75;10.73;;;;;;;;;;4933757;29;20144;-74
2022/11/19 01:11:26;;;;;;;18.80;10.75;;;;;;;;;;4933807;29;20066;-72
2022/11/19 01:13:52;;;;;;;46.05;15.82;;;;;;;;;;4933258;29;20497;-73
2022/11/19 01:16:17;;;;;;;48.20;15.80;;;;;;;;;;4932235;29;20083;-73
2022/11/19 01:18:44;;;;;;;23.60;11.32;;;;;;;;;;4932965;29;20071;-73
2022/11/19 01:21:10;;;;;;;27.45;13.52;;;;;;;;;;4932952;29;20547;-71
2022/11/19 01:23:37;;;;;;;31.58;11.70;;;;;;;;;;4933511;29;20039;-72
2022/11/19 01:26:03;;;;;;;18.98;10.32;;;;;;;;;;4933125;29;20082;-72
2022/11/19 01:28:28;;;;;;;19.55;9.43;;;;;;;;;;4932277;29;20096;-73
2022/11/19 01:30:54;;;;;;;27.45;12.85;;;;;;;;;;4940889;29;20047;-73
2022/11/19 01:33:21;;;;;;;24.77;11.73;;;;;;;;;;4934991;29;20035;-73
2022/11/19 01:35:54;;;;;;;20.30;11.00;;;;;;;;;;4952219;29;20431;-73
2022/11/19 01:38:19;;;;;;;19.77;11.18;;;;;;;;;;4918367;29;20042;-73
2022/11/19 01:40:46;;;;;;;25.60;11.15;;;;;;;;;;4933345;29;20038;-73
2022/11/19 01:43:12;;;;;;;17.83;10.35;;;;;;;;;;4949565;29;20047;-73
2022/11/19 01:45:38;;;;;;;15.77;10.70;;;;;;;;;;4932444;29;20098;-74
2022/11/19 01:48:08;;;;;;;16.95;11.13;;;;;;;;;;4935877;29;20050;-73
2022/11/19 01:50:36;;;;;;;16.42;10.43;;;;;;;;;;4953330;29;20036;-72
2022/11/19 01:53:02;;;;;;;11.98;8.73;;;;;;;;;;4920134;29;20050;-73
2022/11/19 01:55:28;;;;;;;13.40;8.68;;;;;;;;;;4935598;29;20035;-73
2022/11/19 01:57:55;;;;;;;11.23;8.05;;;;;;;;;;4953206;29;20071;-72
2022/11/19 02:00:21;;;;;;;12.02;8.70;;;;;;;;;;4952851;28;20508;-74
2022/11/19 02:02:47;;;;;;;11.57;9.43;;;;;;;;;;4935770;29;20039;-73
2022/11/19 02:05:13;;;;;;;10.55;9.48;;;;;;;;;;4952808;29;20042;-73
2022/11/19 02:07:39;;;;;;;12.32;9.93;;;;;;;;;;4952908;29;20043;-73
2022/11/19 02:10:05;;;;;;;8.48;7.72;;;;;;;;;;4952980;29;20131;-70
2022/11/19 02:12:34;;;;;;;7.90;7.10;;;;;;;;;;4935916;29;20039;-73
2022/11/19 02:15:23;;;;;;;10.15;6.15;;;;;;;;;;4938819;29;20047;-72
2022/11/19 02:18:01;;;;;;;8.77;7.88;;;;;;;;;;4919704;29;20051;-73
2022/11/19 02:20:32;;;;;;;8.23;7.35;;;;;;;;;;4935168;29;20405;-73
2022/11/19 02:23:19;;;;;;;8.75;7.75;;;;;;;;;;4935340;29;20462;-72
2022/11/19 02:25:51;;;;;;;9.18;8.20;;;;;;;;;;4935219;29;20039;-73
2022/11/19 02:28:23;;;;;;;8.05;7.25;;;;;;;;;;4952015;29;20042;-72
2022/11/19 02:30:50;;;;;;;7.97;6.97;;;;;;;;;;4935403;29;20504;-74
2022/11/19 02:33:18;;;;;;;9.60;7.15;;;;;;;;;;4934827;29;20047;-73
2022/11/19 02:35:47;;;;;;;8.50;7.63;;;;;;;;;;4934839;29;20122;-73
2022/11/19 02:38:25;;;;;;;12.40;8.05;;;;;;;;;;4951875;28;20043;-72
2022/11/19 02:41:32;;;;;;;11.13;8.77;;;;;;;;;;4953959;29;20562;-72
2022/11/19 02:43:47;;;;;;;10.32;9.23;;;;;;;;;;4952062;29;20039;-72
2022/11/19 02:46:13;;;;;;;15.02;10.35;;;;;;;;;;4934607;29;20049;-72
2022/11/19 02:48:41;;;;;;;14.15;9.02;;;;;;;;;;4918930;29;20424;-72
2022/11/19 02:51:07;;;;;;;8.68;7.75;;;;;;;;;;4903386;29;20046;-74
2022/11/19 02:53:32;;;;;;;10.30;9.10;;;;;;;;;;4951775;28;20035;-72
2022/11/19 02:56:09;;;;;;;7.07;6.38;;;;;;;;;;4934599;29;20035;-74
2022/11/19 03:04:30;;;;;;;10.82;8.10;;;;;;;;;;4951770;29;20035;-73
2022/11/19 03:06:57;;;;;;;8.55;7.55;;;;;;;;;;4936660;29;20039;-74
2022/11/19 03:09:23;;;;;;;7.75;7.00;;;;;;;;;;4934413;29;20071;-74
2022/11/19 03:11:51;;;;;;;9.90;6.88;;;;;;;;;;4951437;28;20031;-73
2022/11/19 03:17:15;;;;;;;7.28;6.55;;;;;;;;;;4936947;29;20042;-73
2022/11/19 03:19:59;;;;;;;8.45;7.00;;;;;;;;;;4918588;29;20043;-74
2022/11/19 03:22:27;;;;;;;7.40;6.50;;;;;;;;;;4933934;29;20415;-72
2022/11/19 03:25:06;;;;;;;9.38;6.43;;;;;;;;;;4918436;29;20035;-73
2022/11/19 03:27:40;;;;;;;9.13;7.28;;;;;;;;;;4933954;29;20392;-73
2022/11/19 03:30:06;;;;;;;9.63;7.38;;;;;;;;;;4934164;29;20035;-74
2022/11/19 03:32:34;;;;;;;6.93;6.32;;;;;;;;;;4951259;29;20514;-73
2022/11/19 03:35:02;;;;;;;6.88;6.18;;;;;;;;;;4934629;29;20047;-74
2022/11/19 03:37:29;;;;;;;8.40;6.55;;;;;;;;;;4934625;29;20043;-74
2022/11/19 03:39:55;;;;;;;8.13;7.07;;;;;;;;;;4934554;29;20043;-71
2022/11/19 03:42:21;;;;;;;7.95;7.20;;;;;;;;;;4933868;29;20090;-72
2022/11/19 03:44:48;;;;;;;7.20;6.40;;;;;;;;;;4951018;29;20129;-74
2022/11/19 03:47:15;;;;;;;9.80;6.97;;;;;;;;;;4933532;29;20118;-74
2022/11/19 03:49:42;;;;;;;11.27;8.10;;;;;;;;;;4917987;29;20053;-73
2022/11/19 03:52:09;;;;;;;9.30;8.13;;;;;;;;;;4918000;29;20043;-74
2022/11/19 03:54:36;;;;;;;10.05;7.18;;;;;;;;;;4933611;29;20415;-73
2022/11/19 03:57:01;;;;;;;7.57;6.82;;;;;;;;;;4917532;29;20039;-73
2022/11/19 03:59:27;;;;;;;10.00;7.30;;;;;;;;;;4933311;29;20048;-73
2022/11/19 04:01:54;;;;;;;7.88;6.90;;;;;;;;;;4950458;28;20094;-73
2022/11/19 04:04:36;;;;;;;8.02;6.70;;;;;;;;;;4933150;29;20070;-74
2022/11/19 04:07:05;;;;;;;7.25;6.35;;;;;;;;;;4933194;29;20393;-73
2022/11/19 04:09:31;;;;;;;6.85;6.15;;;;;;;;;;4949848;28;20039;-73
2022/11/19 04:11:57;;;;;;;6.97;6.35;;;;;;;;;;4950622;28;20503;-74
2022/11/19 04:14:23;;;;;;;12.10;7.35;;;;;;;;;;4933231;29;20031;-74
2022/11/19 04:16:48;;;;;;;8.80;8.00;;;;;;;;;;4933186;29;20050;-75
2022/11/19 04:19:16;;;;;;;7.95;7.15;;;;;;;;;;4950438;29;20039;-74
2022/11/19 04:21:42;;;;;;;11.35;8.88;;;;;;;;;;4932806;29;20138;-75
2022/11/19 04:24:08;;;;;;;9.00;8.15;;;;;;;;;;4933860;29;20110;-73
2022/11/19 04:26:33;;;;;;;11.25;8.00;;;;;;;;;;4950545;29;20437;-75
2022/11/19 04:29:00;;;;;;;8.80;7.75;;;;;;;;;;4950434;28;20035;-74
2022/11/19 04:31:25;;;;;;;9.60;8.10;;;;;;;;;;4949714;29;20164;-74
2022/11/19 04:33:51;;;;;;;10.93;9.30;;;;;;;;;;4917210;29;20559;-74
2022/11/19 04:36:18;;;;;;;9.98;7.90;;;;;;;;;;4950171;28;20057;-72
2022/11/19 04:38:44;;;;;;;8.93;7.63;;;;;;;;;;4949939;29;20126;-71
2022/11/19 04:41:10;;;;;;;7.13;6.53;;;;;;;;;;4949910;28;20137;-71
2022/11/19 04:43:35;;;;;;;7.38;6.22;;;;;;;;;;4949704;29;20220;-71
2022/11/19 04:46:01;;;;;;;9.43;6.90;;;;;;;;;;4932859;29;20051;-73
2022/11/19 04:48:27;;;;;;;10.52;8.40;;;;;;;;;;4949478;29;20062;-71
2022/11/19 04:50:53;;;;;;;11.35;8.57;;;;;;;;;;4932570;29;20038;-72
2022/11/19 04:53:19;;;;;;;10.68;7.95;;;;;;;;;;4949663;28;20074;-71
2022/11/19 04:55:45;;;;;;;8.60;7.72;;;;;;;;;;4949719;29;20106;-72
2022/11/19 04:58:11;;;;;;;8.75;7.85;;;;;;;;;;4916724;29;20047;-73
2022/11/19 05:00:37;;;;;;;9.00;8.05;;;;;;;;;;4949325;28;20420;-73
2022/11/19 05:03:03;;;;;;;21.90;9.38;;;;;;;;;;4932164;29;20118;-72
2022/11/19 05:05:29;;;;;;;13.63;11.15;;;;;;;;;;4949415;28;20078;-72
2022/11/19 05:07:54;;;;;;;19.15;13.05;;;;;;;;;;4949592;28;20460;-71
2022/11/19 05:10:20;;;;;;;16.52;11.65;;;;;;;;;;4916167;29;20062;-71
2022/11/19 05:12:46;;;;;;;18.90;12.05;;;;;;;;;;4949351;29;20054;-71
2022/11/19 05:15:12;;;;;;;12.65;9.55;;;;;;;;;;4949377;29;20051;-71
2022/11/19 05:17:38;;;;;;;10.75;9.30;;;;;;;;;;4931641;29;20587;-71
2022/11/19 05:20:04;;;;;;;18.83;12.60;;;;;;;;;;4932063;28;20037;-72
2022/11/19 05:22:30;;;;;;;17.35;13.27;;;;;;;;;;4931034;29;20558;-72
2022/11/19 05:24:56;;;;;;;21.73;13.10;;;;;;;;;;4949335;29;20090;-72
2022/11/19 05:27:22;;;;;;;20.70;12.82;;;;;;;;;;4931786;29;20043;-72
2022/11/19 05:29:47;;;;;;;18.13;14.35;;;;;;;;;;4949748;29;20039;-71
2022/11/19 05:32:13;;;;;;;20.15;14.93;;;;;;;;;;4932228;29;20043;-72
2022/11/19 05:34:39;;;;;;;24.48;15.93;;;;;;;;;;4931625;29;20102;-72
2022/11/19 05:37:05;;;;;;;23.63;15.20;;;;;;;;;;4949160;29;20071;-72
2022/11/19 05:39:31;;;;;;;29.48;21.13;;;;;;;;;;4949061;29;20126;-72
2022/11/19 05:41:57;;;;;;;25.30;18.25;;;;;;;;;;4946899;28;20035;-71
2022/11/19 05:44:23;;;;;;;23.52;16.65;;;;;;;;;;4946784;29;20039;-72
2022/11/19 05:46:49;;;;;;;29.63;22.00;;;;;;;;;;4948865;29;20062;-72
2022/11/19 05:49:15;;;;;;;32.67;22.42;;;;;;;;;;4949892;29;20129;-72
2022/11/19 05:51:40;;;;;;;26.23;16.75;;;;;;;;;;4949353;29;20532;-72
2022/11/19 05:54:06;;;;;;;24.95;17.35;;;;;;;;;;4931235;29;20046;-71
2022/11/19 05:56:32;;;;;;;22.88;16.65;;;;;;;;;;4931735;29;20504;-72
2022/11/19 05:58:58;;;;;;;21.38;16.48;;;;;;;;;;4907142;29;20039;-72
2022/11/19 06:01:27;;;;;;;29.75;19.13;;;;;;;;;;4936779;29;20142;-72
2022/11/19 06:03:52;;;;;;;27.02;16.85;;;;;;;;;;4947546;29;20094;-72
2022/11/19 06:06:18;;;;;;;29.23;16.95;;;;;;;;;;4902105;29;20042;-72
2022/11/19 06:08:44;;;;;;;24.30;17.02;;;;;;;;;;4950603;28;20090;-71
2022/11/19 06:11:46;;;;;;;22.42;16.27;;;;;;;;;;4951564;29;20512;-71
2022/11/19 06:13:56;;;;;;;29.10;18.33;;;;;;;;;;4938900;29;20038;-72
2022/11/19 06:16:22;;;;;;;27.33;17.48;;;;;;;;;;4952432;29;20046;-72
2022/11/19 06:18:48;;;;;;;26.38;17.67;;;;;;;;;;4953592;29;20039;-72
2022/11/19 06:21:15;;;;;;;20.80;17.10;;;;;;;;;;4949017;29;20539;-71
2022/11/19 06:23:41;;;;;;;21.33;13.05;;;;;;;;;;4930325;29;20038;-71
2022/11/19 06:26:07;;;;;;;16.27;12.45;;;;;;;;;;4947852;29;20130;-71
2022/11/19 06:28:33;;;;;;;15.35;12.00;;;;;;;;;;4930887;29;20038;-72
2022/11/19 06:30:58;;;;;;;13.25;11.05;;;;;;;;;;4930992;29;20035;-72
2022/11/19 06:33:24;;;;;;;13.02;6.38;;;;;;;;;;4917457;29;20066;-73
2022/11/19 06:35:50;;;;;;;10.70;9.52;;;;;;;;;;4952057;29;20063;-73
2022/11/19 06:38:16;;;;;;;17.33;12.85;;;;;;;;;;4952628;29;20036;-72
2022/11/19 06:40:44;;;;;;;8.85;7.70;;;;;;;;;;4951313;29;20042;-73
2022/11/19 06:43:10;;;;;;;10.20;8.43;;;;;;;;;;4952634;29;20043;-73
2022/11/19 06:45:35;;;;;;;9.63;7.88;;;;;;;;;;4952365;29;20074;-73
2022/11/19 06:48:01;;;;;;;10.65;8.52;;;;;;;;;;4952343;29;20035;-73
2022/11/19 06:50:27;;;;;;;10.30;8.63;;;;;;;;;;4952377;29;20511;-73
2022/11/19 06:52:53;;;;;;;11.82;8.48;;;;;;;;;;4952299;29;20043;-72
2022/11/19 06:55:20;;;;;;;13.93;10.10;;;;;;;;;;4952042;29;20074;-72
2022/11/19 06:57:46;;;;;;;11.20;8.65;;;;;;;;;;4951983;29;20039;-71
2022/11/19 07:00:12;;;;;;;16.95;8.82;;;;;;;;;;4952121;29;20043;-71
2022/11/19 07:02:38;;;;;;;15.60;8.25;;;;;;;;;;4951614;29;20035;-72
2022/11/19 07:05:04;;;;;;;12.95;10.30;;;;;;;;;;4952512;29;20126;-72
2022/11/19 07:07:30;;;;;;;10.32;8.32;;;;;;;;;;4952331;29;20122;-72
2022/11/19 07:09:56;;;;;;;10.07;9.07;;;;;;;;;;4952668;29;20074;-72
2022/11/19 07:12:22;;;;;;;13.02;8.30;;;;;;;;;;4952665;29;20031;-72
2022/11/19 07:14:48;;;;;;;8.02;7.32;;;;;;;;;;4935337;29;20424;-72
2022/11/19 07:17:14;;;;;;;8.85;5.07;;;;;;;;;;4952555;29;20074;-72
2022/11/19 07:19:41;;;;;;;11.20;7.47;;;;;;;;;;4936906;29;20031;-72
2022/11/19 07:22:07;;;;;;;11.45;8.75;;;;;;;;;;4957785;28;20058;-72
2022/11/19 07:24:33;;;;;;;8.45;6.43;;;;;;;;;;4944856;29;20063;-72
2022/11/19 07:26:58;;;;;;;11.52;9.15;;;;;;;;;;4961521;29;20043;-72
2022/11/19 07:29:24;;;;;;;13.93;9.90;;;;;;;;;;4960696;29;20042;-71
2022/11/19 07:31:52;;;;;;;16.45;11.80;;;;;;;;;;4958990;29;20062;-72
2022/11/19 07:34:18;;;;;;;11.23;9.40;;;;;;;;;;4940762;29;20071;-71
2022/11/19 07:36:44;;;;;;;10.27;8.27;;;;;;;;;;4940182;29;20047;-72
2022/11/19 07:39:10;;;;;;;11.55;8.48;;;;;;;;;;4958621;29;20277;-72
2022/11/19 07:44:20;;;;;;;14.77;13.18;;;;;;;;;;4958350;28;20039;-72
2022/11/19 07:46:46;;;;;;;11.73;8.00;;;;;;;;;;4942166;29;20039;-72
2022/11/19 07:49:12;;;;;;;12.10;9.80;;;;;;;;;;4962796;29;20031;-72
2022/11/19 07:51:38;;;;;;;9.63;8.68;;;;;;;;;;4962035;29;20042;-72
2022/11/19 07:54:04;;;;;;;9.15;8.15;;;;;;;;;;4944529;29;20054;-72
2022/11/19 07:56:29;;;;;;;10.55;9.55;;;;;;;;;;4962107;29;20074;-73
2022/11/19 07:58:55;;;;;;;11.32;8.57;;;;;;;;;;4945234;29;20117;-72
2022/11/19 08:01:21;;;;;;;9.07;8.15;;;;;;;;;;4928463;29;20090;-71
2022/11/19 08:03:48;;;;;;;10.10;8.18;;;;;;;;;;4943480;29;20114;-73
2022/11/19 08:06:14;;;;;;;12.57;10.63;;;;;;;;;;4943636;29;20043;-71
2022/11/19 08:08:40;;;;;;;11.20;9.05;;;;;;;;;;4942855;29;20035;-73
2022/11/19 08:11:07;;;;;;;11.05;9.40;;;;;;;;;;4961092;29;20035;-73
2022/11/19 08:13:33;;;;;;;11.25;9.85;;;;;;;;;;4938143;29;20042;-73
2022/11/19 08:15:59;;;;;;;14.95;10.77;;;;;;;;;;4954232;29;20043;-72
2022/11/19 08:18:25;;;;;;;13.57;11.88;;;;;;;;;;4935308;29;20055;-72
2022/11/19 08:20:51;;;;;;;14.30;12.90;;;;;;;;;;4950946;29;20085;-72
2022/11/19 08:23:17;;;;;;;11.55;8.88;;;;;;;;;;4927504;29;20544;-72
2022/11/19 08:25:43;;;;;;;11.35;9.27;;;;;;;;;;4930661;29;20072;-73
2022/11/19 08:28:09;;;;;;;10.05;8.93;;;;;;;;;;4947314;29;20122;-72
2022/11/19 08:30:38;;;;;;;16.52;14.32;;;;;;;;;;4949666;29;20571;-73
2022/11/19 08:33:04;;;;;;;10.02;8.65;;;;;;;;;;4945201;29;20027;-72
2022/11/19 08:35:31;;;;;;;10.50;7.90;;;;;;;;;;4946126;29;20047;-72
2022/11/19 08:37:57;;;;;;;18.15;6.85;;;;;;;;;;4924747;29;20078;-72
2022/11/19 08:40:24;;;;;;;12.75;10.38;;;;;;;;;;4924696;29;20073;-72
2022/11/19 08:42:59;;;;;;;8.45;7.68;;;;;;;;;;4923614;29;20082;-72
2022/11/19 08:45:32;;;;;;;13.23;8.65;;;;;;;;;;4939322;29;20032;-72
2022/11/19 08:47:59;;;;;;;10.93;8.98;;;;;;;;;;4920794;29;20031;-73
2022/11/19 08:50:25;;;;;;;11.85;8.38;;;;;;;;;;4921802;29;20031;-72
2022/11/19 08:52:54;;;;;;;10.60;9.48;;;;;;;;;;4939541;29;20397;-72
2022/11/19 08:55:20;;;;;;;11.68;9.88;;;;;;;;;;4938698;29;20079;-72
2022/11/19 08:57:47;;;;;;;10.43;8.73;;;;;;;;;;4954703;28;20027;-72
2022/11/19 09:00:13;;;;;;;7.38;6.78;;;;;;;;;;4948069;29;20126;-72
2022/11/19 09:02:39;;;;;;;9.88;7.72;;;;;;;;;;4954626;28;20046;-72
2022/11/19 09:05:05;;;;;;;9.88;6.82;;;;;;;;;;4948243;29;20031;-71
2022/11/19 09:07:31;;;;;;;9.02;8.13;;;;;;;;;;4947954;29;20083;-71
2022/11/19 09:09:57;;;;;;;9.90;8.77;;;;;;;;;;4948469;29;20129;-72
2022/11/19 09:12:23;;;;;;;10.27;8.05;;;;;;;;;;4914852;29;20031;-72
2022/11/19 09:14:49;;;;;;;13.05;9.02;;;;;;;;;;4948029;29;20597;-71
2022/11/19 09:17:15;;;;;;;14.23;12.45;;;;;;;;;;4949096;29;20039;-72
2022/11/19 09:19:41;;;;;;;9.18;8.02;;;;;;;;;;4946341;29;20086;-71
2022/11/19 09:22:07;;;;;;;9.23;6.85;;;;;;;;;;4948839;29;20538;-71
2022/11/19 09:24:33;;;;;;;8.02;6.65;;;;;;;;;;4923691;29;20032;-71
2022/11/19 09:27:00;;;;;;;5.60;5.07;;;;;;;;;;4947584;29;20027;-71
2022/11/19 09:29:26;;;;;;;4.65;4.25;;;;;;;;;;4926122;29;20420;-71
2022/11/19 09:31:52;;;;;;;5.07;4.63;;;;;;;;;;4926280;29;20035;-71
2022/11/19 09:34:18;;;;;;;6.03;5.43;;;;;;;;;;4946200;29;20055;-71
2022/11/19 09:36:44;;;;;;;9.57;7.90;;;;;;;;;;4947289;29;20043;-71
2022/11/19 09:39:10;;;;;;;10.57;8.18;;;;;;;;;;4946058;29;20137;-71
2022/11/19 09:41:40;;;;;;;6.18;5.43;;;;;;;;;;4948282;29;20571;-71
2022/11/19 09:44:18;;;;;;;7.30;6.30;;;;;;;;;;4948010;29;20714;-71
2022/11/19 09:47:07;;;;;;;11.18;8.57;;;;;;;;;;4928976;29;20522;-71
2022/11/19 09:49:36;;;;;;;7.80;7.00;;;;;;;;;;4921494;29;20046;-71
2022/11/19 09:52:04;;;;;;;10.82;7.63;;;;;;;;;;4948677;29;20134;-70
2022/11/19 09:54:30;;;;;;;7.50;6.78;;;;;;;;;;4953641;28;20031;-71
2022/11/19 09:56:56;;;;;;;7.68;6.88;;;;;;;;;;4948137;29;20129;-71
2022/11/19 09:59:23;;;;;;;13.07;9.57;;;;;;;;;;4947762;29;20073;-72
2022/11/19 10:01:49;;;;;;;8.48;7.30;;;;;;;;;;4947507;29;20050;-71
2022/11/19 10:04:15;;;;;;;9.50;7.25;;;;;;;;;;4947364;29;20043;-71
2022/11/19 10:06:47;;;;;;;6.80;6.13;;;;;;;;;;4929667;29;20061;-72
2022/11/19 10:09:16;;;;;;;10.35;7.88;;;;;;;;;;4933755;29;20138;-72
2022/11/19 10:11:46;;;;;;;11.05;7.93;;;;;;;;;;4948261;29;20027;-71
2022/11/19 10:14:15;;;;;;;7.82;7.13;;;;;;;;;;4933448;29;20032;-71
2022/11/19 10:16:50;;;;;;;9.57;8.57;;;;;;;;;;4947898;29;20529;-71
2022/11/19 10:19:29;;;;;;;8.88;7.68;;;;;;;;;;4917575;29;20047;-71
2022/11/19 10:21:58;;;;;;;10.80;8.80;;;;;;;;;;4933517;29;20054;-71
2022/11/19 10:24:24;;;;;;;11.70;8.48;;;;;;;;;;4947042;29;20031;-70
2022/11/19 10:26:54;;;;;;;10.52;8.75;;;;;;;;;;4950688;29;20027;-72
2022/11/19 10:29:20;;;;;;;7.20;6.05;;;;;;;;;;4957114;28;21082;-71
2022/11/19 10:31:47;;;;;;;11.77;10.63;;;;;;;;;;4952015;28;20038;-72
2022/11/19 10:34:27;;;;;;;7.45;6.70;;;;;;;;;;4932995;29;20134;-71
2022/11/19 10:36:56;;;;;;;8.77;7.75;;;;;;;;;;4956720;28;20097;-72
2022/11/19 10:39:23;;;;;;;14.75;13.20;;;;;;;;;;4933012;29;20533;-72
2022/11/19 10:41:49;;;;;;;11.40;9.48;;;;;;;;;;4950251;29;20838;-72
2022/11/19 10:44:38;;;;;;;8.32;7.32;;;;;;;;;;4950323;29;20039;-72
2022/11/19 10:47:25;;;;;;;6.38;5.78;;;;;;;;;;4944406;29;20093;-72
2022/11/19 10:49:54;;;;;;;7.95;7.15;;;;;;;;;;4943540;29;20513;-71
2022/11/19 10:52:49;;;;;;;7.55;6.85;;;;;;;;;;4947924;29;20179;-71
2022/11/19 10:55:30;;;;;;;8.98;8.07;;;;;;;;;;4881203;29;20060;-71
2022/11/19 10:58:22;;;;;;;5.40;4.97;;;;;;;;;;4947052;29;20043;-71
2022/11/19 11:00:49;;;;;;;5.65;5.25;;;;;;;;;;4943135;28;20054;-70
2022/11/19 11:03:17;;;;;;;6.85;6.28;;;;;;;;;;4946543;29;20074;-71
2022/11/19 11:06:02;;;;;;;8.65;7.85;;;;;;;;;;4932161;29;20031;-71
2022/11/19 11:08:28;;;;;;;5.82;5.32;;;;;;;;;;4947759;29;20043;-71
2022/11/19 11:10:54;;;;;;;6.00;5.50;;;;;;;;;;4948418;29;20305;-71
2022/11/19 11:16:06;;;;;;;10.90;9.45;;;;;;;;;;4932494;29;20051;-71
2022/11/19 11:18:32;;;;;;;5.88;5.45;;;;;;;;;;4955357;28;20090;-72
2022/11/19 11:20:58;;;;;;;11.40;10.48;;;;;;;;;;4949516;29;20055;-71
2022/11/19 11:23:24;;;;;;;7.43;6.85;;;;;;;;;;4949826;29;20035;-72
2022/11/19 11:26:03;;;;;;;9.38;8.48;;;;;;;;;;4928008;29;20035;-72
2022/11/19 11:28:30;;;;;;;6.57;6.03;;;;;;;;;;4929041;29;20530;-71
2022/11/19 11:31:02;;;;;;;5.55;5.10;;;;;;;;;;4942418;29;20051;-69
2022/11/19 11:33:29;;;;;;;8.18;7.43;;;;;;;;;;4931561;29;20606;-71
2022/11/19 11:35:56;;;;;;;8.50;7.68;;;;;;;;;;4926453;29;20575;-71
2022/11/19 11:38:22;;;;;;;7.53;6.85;;;;;;;;;;4948961;28;20039;-70
2022/11/19 11:40:53;;;;;;;6.82;6.22;;;;;;;;;;4944971;29;20054;-69
2022/11/19 11:43:21;;;;;;;7.57;6.93;;;;;;;;;;4931473;29;20043;-71
2022/11/19 11:45:47;;;;;;;7.72;6.55;;;;;;;;;;4946286;29;20108;-71
2022/11/19 11:48:18;;;;;;;10.77;8.70;;;;;;;;;;4915637;29;20043;-70
2022/11/19 11:50:44;;;;;;;5.80;5.30;;;;;;;;;;4929923;29;20041;-69
2022/11/19 11:53:13;;;;;;;10.45;7.72;;;;;;;;;;4941822;29;20490;-70
2022/11/19 11:55:41;;;;;;;8.57;7.78;;;;;;;;;;4890091;29;20233;-69
2022/11/19 11:58:24;;;;;;;6.88;6.20;;;;;;;;;;4930583;29;20040;-70
2022/11/19 12:00:52;;;;;;;8.23;7.53;;;;;;;;;;4909478;29;20046;-71
2022/11/19 12:03:20;;;;;;;7.93;7.25;;;;;;;;;;4941570;28;20102;-70
2022/11/19 12:06:08;;;;;;;12.23;7.18;;;;;;;;;;4945337;28;20037;-71
2022/11/19 12:08:37;;;;;;;12.50;11.20;;;;;;;;;;4926047;29;20456;-71
2022/11/19 12:11:02;;;;;;;7.03;5.53;;;;;;;;;;4937874;29;20036;-71
2022/11/19 12:13:39;;;;;;;9.52;7.45;;;;;;;;;;4933816;29;20040;-71
2022/11/19 12:16:24;;;;;;;10.30;9.40;;;;;;;;;;4931274;29;20110;-70
2022/11/19 12:19:01;;;;;;;7.32;6.60;;;;;;;;;;4943681;29;20504;-70
2022/11/19 12:21:33;;;;;;;11.50;10.40;;;;;;;;;;4908364;29;20055;-70
2022/11/19 12:24:18;;;;;;;6.95;6.35;;;;;;;;;;4924527;29;20036;-71
2022/11/19 12:26:48;;;;;;;6.10;5.60;;;;;;;;;;4925330;29;20062;-69
2022/11/19 12:29:17;;;;;;;5.88;5.47;;;;;;;;;;4925946;29;20513;-70
2022/11/19 12:31:51;;;;;;;5.15;4.75;;;;;;;;;;4927315;29;20532;-72
2022/11/19 12:34:20;;;;;;;6.57;5.78;;;;;;;;;;4931853;29;20118;-70
2022/11/19 12:36:51;;;;;;;9.07;8.20;;;;;;;;;;4927249;29;20051;-72
2022/11/19 12:39:26;;;;;;;6.20;5.57;;;;;;;;;;4925810;29;20040;-71
2022/11/19 12:42:21;;;;;;;5.18;4.70;;;;;;;;;;4927059;29;20110;-72
2022/11/19 12:44:52;;;;;;;4.47;4.07;;;;;;;;;;4907275;29;20110;-72
2022/11/19 12:47:37;;;;;;;11.65;10.40;;;;;;;;;;4923417;29;20453;-71
2022/11/19 12:50:24;;;;;;;6.68;5.93;;;;;;;;;;4925062;29;20123;-71
2022/11/19 12:53:02;;;;;;;12.05;11.02;;;;;;;;;;4924777;29;20040;-71
2022/11/19 12:55:32;;;;;;;9.95;8.98;;;;;;;;;;4928482;29;20047;-71
2022/11/19 12:58:03;;;;;;;8.70;7.47;;;;;;;;;;4924739;29;20042;-72
2022/11/19 13:00:29;;;;;;;5.15;4.75;;;;;;;;;;4925510;29;20121;-72
2022/11/19 13:03:10;;;;;;;7.40;6.65;;;;;;;;;;4925058;29;20154;-70
2022/11/19 13:05:38;;;;;;;12.38;11.18;;;;;;;;;;4922314;29;20098;-71
2022/11/19 13:08:27;;;;;;;9.52;8.73;;;;;;;;;;4928294;29;20634;-72
2022/11/19 13:11:10;;;;;;;7.07;6.45;;;;;;;;;;4922506;29;20119;-71
2022/11/19 13:13:38;;;;;;;9.32;8.43;;;;;;;;;;4924665;29;20043;-73
2022/11/19 13:16:09;;;;;;;9.48;8.48;;;;;;;;;;4917484;29;20111;-71
2022/11/19 13:18:35;;;;;;;8.35;6.30;;;;;;;;;;4922220;29;20038;-71
2022/11/19 13:21:04;;;;;;;9.38;8.55;;;;;;;;;;4922004;29;20139;-71
2022/11/19 13:23:37;;;;;;;7.25;6.55;;;;;;;;;;4939856;29;20040;-72
2022/11/19 13:26:05;;;;;;;8.52;7.72;;;;;;;;;;4950949;28;20046;-72
2022/11/19 13:28:33;;;;;;;8.40;7.60;;;;;;;;;;4926456;29;20058;-73
2022/11/19 13:31:01;;;;;;;6.78;6.18;;;;;;;;;;4933163;29;20040;-71
2022/11/19 13:33:31;;;;;;;8.57;7.88;;;;;;;;;;4950712;28;20119;-71
2022/11/19 13:36:02;;;;;;;9.93;8.95;;;;;;;;;;4950916;28;20501;-72
2022/11/19 13:38:31;;;;;;;7.20;6.50;;;;;;;;;;4927919;29;20111;-72
2022/11/19 13:41:17;;;;;;;6.30;5.75;;;;;;;;;;4924316;29;20032;-71
2022/11/19 13:46:31;;;;;;;11.10;9.57;;;;;;;;;;4923494;29;20641;-72
2022/11/19 13:49:16;;;;;;;8.02;7.25;;;;;;;;;;4929378;29;20849;-72
2022/11/19 13:51:46;;;;;;;7.28;6.65;;;;;;;;;;4926288;29;20081;-72
2022/11/19 13:54:38;;;;;;;9.55;8.65;;;;;;;;;;4910300;29;20063;-72
2022/11/19 13:57:05;;;;;;;8.10;7.40;;;;;;;;;;4923311;29;20048;-70
2022/11/19 13:59:43;;;;;;;9.50;8.73;;;;;;;;;;4932574;29;20038;-72
2022/11/19 14:02:28;;;;;;;9.82;8.70;;;;;;;;;;4926652;29;20031;-72
2022/11/19 14:05:18;;;;;;;8.80;7.90;;;;;;;;;;4908906;29;20036;-71
2022/11/19 14:08:03;;;;;;;11.73;10.52;;;;;;;;;;4923613;29;20039;-72
2022/11/19 14:10:47;;;;;;;8.10;7.35;;;;;;;;;;4928150;29;20035;-72
2022/11/19 14:13:32;;;;;;;12.50;11.43;;;;;;;;;;4919787;29;20043;-72
2022/11/19 14:27:20;;;;;;;6.30;5.70;;;;;;;;;;4924965;29;20064;-72
2022/11/19 14:29:47;;;;;;;6.15;5.65;;;;;;;;;;4925393;29;20275;-71
2022/11/19 14:32:12;;;;;;;7.85;7.13;;;;;;;;;;4924042;29;20488;-71
2022/11/19 14:34:46;;;;;;;8.68;7.95;;;;;;;;;;4925923;29;20047;-71
2022/11/19 14:37:22;;;;;;;8.32;7.63;;;;;;;;;;4924912;29;20047;-72
2022/11/19 14:39:53;;;;;;;8.10;7.50;;;;;;;;;;4893788;29;20233;-72
2022/11/19 14:42:21;;;;;;;11.85;10.75;;;;;;;;;;4927669;29;20588;-72
2022/11/19 14:45:01;;;;;;;6.28;5.78;;;;;;;;;;4924606;29;20535;-72
2022/11/19 14:47:33;;;;;;;10.90;9.38;;;;;;;;;;4927304;29;20513;-71
2022/11/19 14:49:59;;;;;;;11.30;9.95;;;;;;;;;;4924367;29;20153;-71
2022/11/19 14:52:35;;;;;;;7.28;6.68;;;;;;;;;;4921957;29;20591;-71
2022/11/19 14:55:12;;;;;;;6.80;6.22;;;;;;;;;;4915222;29;20040;-72
2022/11/19 14:57:38;;;;;;;11.93;10.77;;;;;;;;;;4917590;29;20794;-72
2022/11/19 15:00:14;;;;;;;10.60;9.68;;;;;;;;;;4920615;29;20060;-71
2022/11/19 15:02:44;;;;;;;8.38;6.38;;;;;;;;;;4924487;29;20516;-72
2022/11/19 15:05:16;;;;;;;14.07;12.82;;;;;;;;;;4929579;29;20086;-71
2022/11/19 15:07:51;;;;;;;6.93;6.25;;;;;;;;;;4915992;29;20028;-71
2022/11/19 15:10:17;;;;;;;7.05;6.20;;;;;;;;;;4921110;29;20044;-72
2022/11/19 15:12:42;;;;;;;8.68;7.47;;;;;;;;;;4912951;29;20042;-70